Time;durP1;ratioP1;P1;durP2;ratioP2;P2;SDS_P1;SDS_P2;PMS_P1;PMS_P2;Temp;Humidity;BMP_temperature;BMP_pressure;BME280_temperature;BME280_humidity;BME280_pressure;Samples;Min_cycle;Max_cycle;Signal;HPM_P1;HPM_P2
2023/04/22 00:00:58;;;;;;;;;;;;;;;9.85;100.00;98337.22;5023674;28;19921;-61
2023/04/22 00:03:23;;;;;;;;;;;;;;;9.79;100.00;98344.63;5021106;28;19925;-62
2023/04/22 00:05:49;;;;;;;;;;;;;;;9.81;100.00;98332.31;5004653;28;19927;-61
2023/04/22 00:08:14;;;;;;;;;;;;;;;9.80;100.00;98328.09;5006461;28;19964;-61
2023/04/22 00:10:40;;;;;;;;;;;;;;;9.79;100.00;98328.22;4989863;28;19929;-61
2023/04/22 00:13:05;;;;;;;;;;;;;;;9.78;100.00;98326.59;4999879;28;19975;-59
2023/04/22 00:15:33;;;;;;;;;;;;;;;9.75;100.00;98329.50;5002406;28;19944;-59
2023/04/22 00:17:58;;;;;;;;;;;;;;;9.82;100.00;98333.94;5004525;28;20371;-59
2023/04/22 00:20:24;;;;;;;;;;;;;;;9.82;100.00;98333.94;5010578;28;20000;-60
2023/04/22 00:22:49;;;;;;;;;;;;;;;9.85;100.00;98329.41;5003367;28;19925;-60
2023/04/22 00:25:15;;;;;;;;;;;;;;;9.88;100.00;98326.53;4991569;28;20418;-60
2023/04/22 00:27:40;;;;;;;;;;;;;;;9.85;100.00;98327.63;5003875;28;20023;-60
2023/04/22 00:30:06;;;;;;;;;;;;;;;9.82;100.00;98333.16;4990279;28;19932;-61
2023/04/22 00:32:31;;;;;;;;;;;;;;;9.85;100.00;98324.22;4985971;28;19921;-60
2023/04/22 00:34:57;;;;;;;;;;;;;;;9.80;100.00;98325.50;5005415;28;19963;-60
2023/04/22 00:37:23;;;;;;;;;;;;;;;9.75;100.00;98322.50;5008667;28;20662;-60
2023/04/22 00:39:48;;;;;;;;;;;;;;;9.69;100.00;98325.69;4989405;28;20348;-59
2023/04/22 00:42:13;;;;;;;;;;;;;;;9.73;100.00;98316.66;5001337;28;19922;-62
2023/04/22 00:44:39;;;;;;;;;;;;;;;9.77;100.00;98320.59;5003430;28;19963;-60
2023/04/22 00:47:07;;;;;;;;;;;;;;;9.74;100.00;98318.28;5008242;28;19928;-63
2023/04/22 00:49:33;;;;;;;;;;;;;;;9.77;100.00;98319.78;4984118;28;19925;-60
2023/04/22 00:51:58;;;;;;;;;;;;;;;9.70;100.00;98311.75;5003300;28;19928;-61
2023/04/22 00:54:23;;;;;;;;;;;;;;;9.72;100.00;98315.00;5027593;28;20372;-60
2023/04/22 00:56:48;;;;;;;;;;;;;;;9.69;100.00;98315.31;4986244;28;20705;-61
2023/04/22 00:59:16;;;;;;;;;;;;;;;9.65;100.00;98315.75;5001709;28;19925;-61
2023/04/22 01:01:42;;;;;;;;;;;;;;;9.64;100.00;98309.75;5005908;28;19920;-61
2023/04/22 01:04:09;;;;;;;;;;;;;;;9.56;100.00;98317.44;5014890;28;19951;-61
2023/04/22 01:06:37;;;;;;;;;;;;;;;9.61;100.00;98315.22;5018774;28;19921;-60
2023/04/22 01:09:04;;;;;;;;;;;;;;;9.65;100.00;98313.16;5025104;28;20015;-61
2023/04/22 01:11:32;;;;;;;;;;;;;;;9.60;100.00;98309.22;5012919;28;20067;-63
2023/04/22 01:13:58;;;;;;;;;;;;;;;9.52;100.00;98309.13;5027079;28;20368;-62
2023/04/22 01:16:28;;;;;;;;;;;;;;;9.54;100.00;98304.59;5028436;28;19917;-61
2023/04/22 01:18:53;;;;;;;;;;;;;;;9.60;100.00;98304.03;5028834;28;20347;-60
2023/04/22 01:21:19;;;;;;;;;;;;;;;9.56;100.00;98301.84;5025639;28;19970;-61
2023/04/22 01:23:44;;;;;;;;;;;;;;;9.52;100.00;98303.13;5009994;28;20016;-61
2023/04/22 01:26:09;;;;;;;;;;;;;;;9.54;100.00;98302.00;5020979;28;20000;-61
2023/04/22 01:28:35;;;;;;;;;;;;;;;9.49;100.00;98291.25;5010923;28;19933;-63
2023/04/22 01:31:00;;;;;;;;;;;;;;;9.45;100.00;98297.69;5025379;28;20327;-61
2023/04/22 01:33:25;;;;;;;;;;;;;;;9.44;100.00;98288.28;5011829;28;19947;-62
2023/04/22 01:35:51;;;;;;;;;;;;;;;9.46;100.00;98293.31;5026826;28;19942;-61
2023/04/22 01:38:16;;;;;;;;;;;;;;;9.47;100.00;98292.34;5026105;28;20406;-62
2023/04/22 01:40:41;;;;;;;;;;;;;;;9.48;100.00;98291.41;5025954;28;19925;-61
2023/04/22 01:43:07;;;;;;;;;;;;;;;9.43;100.00;98303.00;5010954;28;19925;-61
2023/04/22 01:45:34;;;;;;;;;;;;;;;9.45;100.00;98302.06;5033099;28;19917;-61
2023/04/22 01:48:00;;;;;;;;;;;;;;;9.40;100.00;98298.13;5008323;28;19927;-61
2023/04/22 01:50:25;;;;;;;;;;;;;;;9.36;100.00;98298.53;5027321;28;19929;-61
2023/04/22 01:52:53;;;;;;;;;;;;;;;9.40;100.00;98290.34;5020604;28;19921;-61
2023/04/22 01:55:18;;;;;;;;;;;;;;;9.41;100.00;98289.38;5040240;28;19924;-62
2023/04/22 01:57:46;;;;;;;;;;;;;;;9.35;100.00;98297.75;5023458;28;19933;-65
2023/04/22 02:00:11;;;;;;;;;;;;;;;9.35;100.00;98287.34;5033317;28;20251;-61
2023/04/22 02:02:37;;;;;;;;;;;;;;;9.38;100.00;98296.63;5024395;28;20391;-62
2023/04/22 02:05:02;;;;;;;;;;;;;;;9.40;100.00;98299.88;5021690;28;20035;-62
2023/04/22 02:07:27;;;;;;;;;;;;;;;9.32;100.00;98292.81;5026901;28;19952;-62
2023/04/22 02:09:53;;;;;;;;;;;;;;;9.33;100.00;98307.44;5009343;28;19923;-60
2023/04/22 02:12:20;;;;;;;;;;;;;;;9.34;100.00;98311.66;5044171;28;20273;-62
2023/04/22 02:14:46;;;;;;;;;;;;;;;9.36;100.00;98306.34;5023355;28;19929;-61
2023/04/22 02:17:11;;;;;;;;;;;;;;;9.37;100.00;98295.00;5012341;28;19921;-61
2023/04/22 02:19:36;;;;;;;;;;;;;;;9.35;100.00;98300.34;5013206;28;19925;-61
2023/04/22 02:22:02;;;;;;;;;;;;;;;9.36;100.00;98307.16;5024538;28;19917;-61
2023/04/22 02:24:27;;;;;;;;;;;;;;;9.38;100.00;98300.06;5006197;28;19920;-62
2023/04/22 02:26:52;;;;;;;;;;;;;;;9.37;100.00;98300.19;5010884;28;20011;-62
2023/04/22 02:29:20;;;;;;;;;;;;;;;9.37;100.00;98302.78;5025414;28;19921;-60
2023/04/22 02:31:48;;;;;;;;;;;;;;;9.20;100.00;98265.47;5022821;28;20378;-62
2023/04/22 02:34:13;;;;;;;;;;;;;;;9.46;100.00;98295.91;5027035;28;19932;-62
2023/04/22 02:36:41;;;;;;;;;;;;;;;9.39;100.00;98299.06;5027168;28;19921;-62
2023/04/22 02:39:06;;;;;;;;;;;;;;;9.33;100.00;98302.25;5008762;28;20026;-61
2023/04/22 02:41:31;;;;;;;;;;;;;;;9.40;100.00;98297.28;5044920;28;20006;-62
2023/04/22 02:43:56;;;;;;;;;;;;;;;9.38;100.00;98297.47;5023544;28;19925;-61
2023/04/22 02:46:24;;;;;;;;;;;;;;;9.31;100.00;98304.19;5011232;28;19924;-63
2023/04/22 02:48:52;;;;;;;;;;;;;;;9.31;100.00;98306.78;5009506;28;19921;-61
2023/04/22 02:51:17;;;;;;;;;;;;;;;9.29;100.00;98302.69;5028904;28;20514;-62
2023/04/22 02:53:43;;;;;;;;;;;;;;;9.31;100.00;98309.38;5028486;28;19951;-62
2023/04/22 02:56:08;;;;;;;;;;;;;;;9.29;100.00;98308.72;5027091;28;19921;-61
2023/04/22 02:58:33;;;;;;;;;;;;;;;9.27;100.00;98310.59;5016420;28;19974;-61
2023/04/22 03:00:59;;;;;;;;;;;;;;;9.16;100.00;98305.59;5026338;28;19925;-62
2023/04/22 03:03:24;;;;;;;;;;;;;;;9.18;100.00;98308.88;5021108;28;19995;-63
2023/04/22 03:05:50;;;;;;;;;;;;;;;9.13;100.00;98305.91;5002256;28;20384;-62
2023/04/22 03:08:15;;;;;;;;;;;;;;;9.12;100.00;98301.66;4987794;28;19932;-64
2023/04/22 03:10:40;;;;;;;;;;;;;;;9.08;100.00;98297.72;4992061;28;20018;-61
2023/04/22 03:13:05;;;;;;;;;;;;;;;9.09;100.00;98309.72;5004285;28;20431;-61
2023/04/22 03:15:31;;;;;;;;;;;;;;;9.04;100.00;98305.78;5008173;28;19921;-62
2023/04/22 03:17:56;;;;;;;;;;;;;;;9.09;100.00;98309.72;5003540;28;19932;-62
2023/04/22 03:20:21;;;;;;;;;;;;;;;9.03;100.00;98303.34;4991342;28;20340;-62
2023/04/22 03:22:49;;;;;;;;;;;;;;;9.10;100.00;98304.41;4998272;28;19922;-62
2023/04/22 03:25:14;;;;;;;;;;;;;;;9.15;100.00;98311.75;5025700;28;19932;-62
2023/04/22 03:27:42;;;;;;;;;;;;;;;9.17;100.00;98305.47;5004911;28;20283;-61
2023/04/22 03:30:07;;;;;;;;;;;;;;;9.15;100.00;98301.38;5004448;28;20049;-62
2023/04/22 03:32:35;;;;;;;;;;;;;;;9.12;100.00;98304.25;5007682;28;19948;-62
2023/04/22 03:35:00;;;;;;;;;;;;;;;9.06;100.00;98295.28;4987526;28;19969;-62
2023/04/22 03:37:26;;;;;;;;;;;;;;;9.11;100.00;98293.06;4994161;28;20446;-62
2023/04/22 03:39:52;;;;;;;;;;;;;;;9.03;100.00;98303.34;4996931;28;19921;-61
2023/04/22 03:42:17;;;;;;;;;;;;;;;9.05;100.00;98301.41;4993660;28;19925;-61
2023/04/22 03:44:42;;;;;;;;;;;;;;;9.09;100.00;98299.34;5005637;28;20383;-62
2023/04/22 03:47:08;;;;;;;;;;;;;;;9.09;100.00;98299.34;4993292;28;20426;-61
2023/04/22 03:49:35;;;;;;;;;;;;;;;9.08;100.00;98300.31;5012461;28;19921;-61
2023/04/22 03:52:01;;;;;;;;;;;;;;;9.10;100.00;98301.81;5006564;28;19936;-62
2023/04/22 03:54:28;;;;;;;;;;;;;;;8.97;100.00;98299.53;5001814;28;19925;-62
2023/04/22 03:56:54;;;;;;;;;;;;;;;9.01;100.00;98298.28;5008615;28;19970;-62
2023/04/22 03:59:19;;;;;;;;;;;;;;;9.01;100.00;98300.88;4994722;28;19961;-61
2023/04/22 04:01:45;;;;;;;;;;;;;;;9.02;100.00;98301.72;5000476;28;19926;-63
2023/04/22 04:04:13;;;;;;;;;;;;;;;8.97;100.00;98306.50;5024603;28;20326;-61
2023/04/22 04:06:38;;;;;;;;;;;;;;;8.95;100.00;98308.44;5025998;28;19920;-62
2023/04/22 04:09:06;;;;;;;;;;;;;;;8.75;100.00;98271.38;5042402;28;20391;-64
2023/04/22 04:11:31;;;;;;;;;;;;;;;8.90;100.00;98302.84;5014531;28;19924;-61
2023/04/22 04:13:56;;;;;;;;;;;;;;;8.90;100.00;98300.25;5009357;28;19925;-62
2023/04/22 04:16:22;;;;;;;;;;;;;;;8.85;100.00;98296.31;5014085;28;20586;-62
2023/04/22 04:18:50;;;;;;;;;;;;;;;8.86;100.00;98294.53;5029073;28;19955;-62
2023/04/22 04:21:15;;;;;;;;;;;;;;;8.80;100.00;98287.31;5005429;28;19960;-63
2023/04/22 04:23:41;;;;;;;;;;;;;;;8.80;100.00;98288.13;5035712;28;20376;-62
2023/04/22 04:26:07;;;;;;;;;;;;;;;8.76;100.00;98291.13;5011183;28;19920;-62
2023/04/22 04:28:34;;;;;;;;;;;;;;;8.74;100.00;98282.69;5031921;28;19944;-62
2023/04/22 04:31:02;;;;;;;;;;;;;;;8.77;100.00;98285.81;5028414;28;19920;-63
2023/04/22 04:33:31;;;;;;;;;;;;;;;8.82;100.00;98280.22;5025102;28;19956;-62
2023/04/22 04:35:57;;;;;;;;;;;;;;;8.78;100.00;98278.84;5012421;28;19917;-62
2023/04/22 04:38:23;;;;;;;;;;;;;;;8.74;100.00;98285.28;5013167;28;19932;-62
2023/04/22 04:40:49;;;;;;;;;;;;;;;8.69;100.00;98287.47;5016377;28;20206;-62
2023/04/22 04:43:15;;;;;;;;;;;;;;;8.68;100.00;98299.63;5030589;28;21139;-62
2023/04/22 04:45:45;;;;;;;;;;;;;;;8.70;100.00;98292.53;5005504;28;19925;-61
2023/04/22 04:48:11;;;;;;;;;;;;;;;8.72;100.00;98302.75;5009958;28;19979;-61
2023/04/22 04:50:36;;;;;;;;;;;;;;;8.71;100.00;98307.13;5022567;28;20445;-62
2023/04/22 04:53:02;;;;;;;;;;;;;;;8.72;100.00;98307.94;5011845;28;19924;-62
2023/04/22 04:55:29;;;;;;;;;;;;;;;8.74;100.00;98308.59;5011886;28;19929;-62
2023/04/22 04:57:55;;;;;;;;;;;;;;;8.74;100.00;98311.19;5013231;28;19927;-62
2023/04/22 05:00:20;;;;;;;;;;;;;;;8.75;100.00;98315.44;5010880;28;19924;-61
2023/04/22 05:02:48;;;;;;;;;;;;;;;8.75;100.00;98310.25;5011010;28;19928;-62
2023/04/22 05:05:13;;;;;;;;;;;;;;;8.78;100.00;98302.19;5008406;28;19925;-62
2023/04/22 05:07:41;;;;;;;;;;;;;;;8.84;100.00;98309.41;5010560;28;19986;-62
2023/04/22 05:10:06;;;;;;;;;;;;;;;8.82;100.00;98312.13;5028464;28;19921;-62
2023/04/22 05:12:34;;;;;;;;;;;;;;;8.92;100.00;98321.66;5023159;28;19917;-61
2023/04/22 05:14:59;;;;;;;;;;;;;;;8.92;100.00;98322.47;5011741;28;19920;-62
2023/04/22 05:17:25;;;;;;;;;;;;;;;8.82;100.00;98317.31;5014490;28;19927;-62
2023/04/22 05:19:50;;;;;;;;;;;;;;;8.83;100.00;98320.72;5029756;28;19921;-62
2023/04/22 05:22:17;;;;;;;;;;;;;;;8.82;100.00;98314.72;5011038;28;19921;-61
2023/04/22 05:24:42;;;;;;;;;;;;;;;8.85;100.00;98317.06;5027630;28;20849;-62
2023/04/22 05:27:10;;;;;;;;;;;;;;;8.78;100.00;98328.94;5039434;28;19932;-62
2023/04/22 05:29:37;;;;;;;;;;;;;;;8.55;100.00;98292.16;5010562;28;19982;-62
2023/04/22 05:32:03;;;;;;;;;;;;;;;8.82;100.00;98327.69;5035818;28;19925;-62
2023/04/22 05:34:28;;;;;;;;;;;;;;;8.83;100.00;98329.34;5010357;28;19931;-63
2023/04/22 05:36:53;;;;;;;;;;;;;;;8.89;100.00;98340.94;5020147;28;20407;-61
2023/04/22 05:39:19;;;;;;;;;;;;;;;8.96;100.00;98349.78;5011948;28;19928;-62
2023/04/22 05:41:44;;;;;;;;;;;;;;;8.83;100.00;98344.06;5009499;28;20466;-61
2023/04/22 05:44:10;;;;;;;;;;;;;;;8.68;100.00;98316.97;5026320;28;19928;-61
2023/04/22 05:46:35;;;;;;;;;;;;;;;9.01;100.00;98344.16;5011740;28;19924;-62
2023/04/22 05:49:01;;;;;;;;;;;;;;;9.03;100.00;98342.22;5027156;28;19928;-61
2023/04/22 05:51:26;;;;;;;;;;;;;;;9.10;100.00;98348.50;5011789;28;20541;-61
2023/04/22 05:53:51;;;;;;;;;;;;;;;9.18;100.00;98340.00;5011183;28;20673;-61
2023/04/22 05:56:17;;;;;;;;;;;;;;;9.14;100.00;98310.13;5002714;28;20008;-63
2023/04/22 05:58:42;;;;;;;;;;;;;;;9.37;100.00;98326.94;5022817;28;19929;-62
2023/04/22 06:01:08;;;;;;;;;;;;;;;9.41;100.00;98335.25;5012018;28;19929;-61
2023/04/22 06:03:33;;;;;;;;;;;;;;;9.45;100.00;98333.19;5024973;28;19964;-61
2023/04/22 06:05:59;;;;;;;;;;;;;;;9.52;100.00;98340.25;5028754;28;19928;-61
2023/04/22 06:08:24;;;;;;;;;;;;;;;9.47;100.00;98339.88;5025952;28;20359;-61
2023/04/22 06:10:50;;;;;;;;;;;;;;;9.24;100.00;98306.53;5012810;28;20466;-61
2023/04/22 06:13:15;;;;;;;;;;;;;;;9.55;100.00;98344.38;5019537;28;20639;-61
2023/04/22 06:15:40;;;;;;;;;;;;;;;9.57;100.00;98343.25;5030479;28;19932;-60
2023/04/22 06:18:05;;;;;;;;;;;;;;;9.58;100.00;98351.84;5011336;28;19967;-61
2023/04/22 06:20:34;;;;;;;;;;;;;;;9.56;100.00;98344.19;5030226;28;20378;-61
2023/04/22 06:23:00;;;;;;;;;;;;;;;9.49;100.00;98342.31;5019816;28;19944;-61
2023/04/22 06:25:25;;;;;;;;;;;;;;;9.47;100.00;98339.88;5011263;28;20435;-61
2023/04/22 06:27:50;;;;;;;;;;;;;;;9.42;100.00;98336.91;5021025;28;19960;-61
2023/04/22 06:30:16;;;;;;;;;;;;;;;9.47;100.00;98333.88;5027661;28;19916;-61
2023/04/22 06:32:41;;;;;;;;;;;;;;;9.53;100.00;98334.13;5027785;28;19948;-62
2023/04/22 06:35:06;;;;;;;;;;;;;;;9.63;100.00;98339.25;5011693;28;20026;-61
2023/04/22 06:37:32;;;;;;;;;;;;;;;9.75;100.00;98330.31;5027412;28;20491;-61
2023/04/22 06:40:00;;;;;;;;;;;;;;;9.88;100.00;98345.53;5029226;28;19924;-61
2023/04/22 06:42:25;;;;;;;;;;;;;;;9.94;100.00;98344.94;5027237;28;19925;-62
2023/04/22 06:44:50;;;;;;;;;;;;;;;9.94;100.00;98339.72;5012600;28;19970;-62
2023/04/22 06:47:16;;;;;;;;;;;;;;;9.71;100.00;98338.50;5027574;28;20295;-61
2023/04/22 06:49:42;;;;;;;;;;;;;;;9.62;100.00;98343.63;5006201;28;20376;-62
2023/04/22 06:52:07;;;;;;;;;;;;;;;9.62;100.00;98342.81;5026609;28;19924;-61
2023/04/22 06:54:33;;;;;;;;;;;;;;;9.63;100.00;98349.63;4989551;28;20527;-61
2023/04/22 06:56:58;;;;;;;;;;;;;;;9.66;100.00;98353.75;5007682;28;19925;-61
2023/04/22 06:59:26;;;;;;;;;;;;;;;9.72;100.00;98353.16;5010727;28;19920;-61
2023/04/22 07:01:53;;;;;;;;;;;;;;;9.74;100.00;98352.03;5024695;28;20386;-61
2023/04/22 07:04:19;;;;;;;;;;;;;;;9.85;100.00;98356.19;5020604;28;19989;-60
2023/04/22 07:06:44;;;;;;;;;;;;;;;9.92;100.00;98351.25;5010807;28;19929;-60
2023/04/22 07:09:10;;;;;;;;;;;;;;;9.99;100.00;98353.09;5020278;28;19991;-60
2023/04/22 07:11:37;;;;;;;;;;;;;;;9.98;100.00;98358.44;5012884;28;19931;-60
2023/04/22 07:14:03;;;;;;;;;;;;;;;10.09;100.00;98357.41;5026054;28;19918;-60
2023/04/22 07:16:28;;;;;;;;;;;;;;;10.12;100.00;98352.75;5025976;28;19963;-61
2023/04/22 07:18:53;;;;;;;;;;;;;;;10.11;100.00;98358.91;5030606;28;20010;-61
2023/04/22 07:21:21;;;;;;;;;;;;;;;10.22;100.00;98351.84;5042845;28;19939;-61
2023/04/22 07:23:46;;;;;;;;;;;;;;;10.18;100.00;98351.31;5015143;28;20273;-60
2023/04/22 07:26:12;;;;;;;;;;;;;;;10.29;100.00;98348.50;5030926;28;19970;-60
2023/04/22 07:28:37;;;;;;;;;;;;;;;10.36;100.00;98346.16;5021849;28;20360;-60
2023/04/22 07:31:02;;;;;;;;;;;;;;;10.39;100.00;98348.47;5048878;28;19971;-60
2023/04/22 07:33:28;;;;;;;;;;;;;;;10.38;100.00;98345.03;5015843;28;20367;-62
2023/04/22 07:35:53;;;;;;;;;;;;;;;10.38;100.00;98336.44;5015249;28;19944;-60
2023/04/22 07:38:18;;;;;;;;;;;;;;;10.36;100.00;98341.78;5014181;28;20383;-59
2023/04/22 07:40:44;;;;;;;;;;;;;;;10.42;100.00;98337.75;5028349;28;19925;-61
2023/04/22 07:43:09;;;;;;;;;;;;;;;10.45;100.00;98342.66;5013594;28;20020;-60
2023/04/22 07:45:35;;;;;;;;;;;;;;;10.41;100.00;98335.31;5024747;28;20545;-61
2023/04/22 07:48:00;;;;;;;;;;;;;;;10.47;100.00;98334.72;5003346;28;19925;-61
2023/04/22 07:50:28;;;;;;;;;;;;;;;10.52;100.00;98330.69;5010461;28;20001;-59
2023/04/22 07:52:53;;;;;;;;;;;;;;;10.62;100.00;98335.78;5009448;28;19998;-61
2023/04/22 07:55:21;;;;;;;;;;;;;;;10.70;100.00;98335.88;5012292;28;20438;-62
2023/04/22 07:57:46;;;;;;;;;;;;;;;10.68;100.00;98334.41;5026495;28;19924;-61
2023/04/22 08:00:17;;;;;;;;;;;;;;;10.75;100.00;98335.38;5024454;28;20268;-59
2023/04/22 08:02:42;;;;;;;;;;;;;;;10.90;100.00;98341.69;5012145;28;19987;-62
2023/04/22 08:05:08;;;;;;;;;;;;;;;11.02;100.00;98344.03;5006707;28;19928;-62
2023/04/22 08:07:33;;;;;;;;;;;;;;;11.15;100.00;98347.00;5025680;28;20351;-62
2023/04/22 08:09:59;;;;;;;;;;;;;;;11.13;100.00;98342.00;5009217;28;20320;-61
2023/04/22 08:12:24;;;;;;;;;;;;;;;11.09;100.00;98338.03;5010626;28;19972;-60
2023/04/22 08:14:50;;;;;;;;;;;;;;;11.19;100.00;98330.16;5006265;28;19964;-61
2023/04/22 08:17:15;;;;;;;;;;;;;;;11.20;100.00;98333.56;5028356;28;19921;-61
2023/04/22 08:19:40;;;;;;;;;;;;;;;11.28;100.00;98343.97;5013099;28;20398;-61
2023/04/22 08:22:06;;;;;;;;;;;;;;;11.67;100.00;98349.53;4998677;28;20372;-61
2023/04/22 08:24:31;;;;;;;;;;;;;;;11.99;100.00;98342.81;5027458;28;20348;-61
2023/04/22 08:26:56;;;;;;;;;;;;;;;12.07;100.00;98347.22;5009320;28;20402;-61
2023/04/22 08:29:24;;;;;;;;;;;;;;;12.17;100.00;98344.44;5010701;28;19991;-60
2023/04/22 08:31:49;;;;;;;;;;;;;;;12.38;100.00;98341.38;5028604;28;19916;-61
2023/04/22 08:34:15;;;;;;;;;;;;;;;12.66;100.00;98340.03;5028517;28;20796;-61
2023/04/22 08:36:40;;;;;;;;;;;;;;;12.74;100.00;98336.63;5012080;28;20267;-61
2023/04/22 08:39:06;;;;;;;;;;;;;;;12.96;100.00;98329.91;5008970;28;19921;-61
2023/04/22 08:41:33;;;;;;;;;;;;;;;12.90;100.00;98333.16;5026795;28;20006;-61
2023/04/22 08:43:58;;;;;;;;;;;;;;;12.99;99.51;98323.53;5008329;28;20012;-61
2023/04/22 08:46:24;;;;;;;;;;;;;;;12.84;100.00;98333.84;5026024;28;20498;-61
2023/04/22 08:48:49;;;;;;;;;;;;;;;12.63;100.00;98334.34;5011640;28;19920;-62
2023/04/22 08:51:17;;;;;;;;;;;;;;;12.54;100.00;98337.94;5024109;28;20319;-60
2023/04/22 08:53:43;;;;;;;;;;;;;;;12.55;100.00;98329.16;5027159;28;19921;-62
2023/04/22 08:56:08;;;;;;;;;;;;;;;12.63;100.00;98329.13;5008744;28;19931;-62
2023/04/22 08:58:33;;;;;;;;;;;;;;;12.75;100.00;98319.19;5027830;28;19969;-61
2023/04/22 09:00:59;;;;;;;;;;;;;;;12.72;100.00;98322.91;5007934;28;20027;-61
2023/04/22 09:03:26;;;;;;;;;;;;;;;12.68;100.00;98326.84;5005371;28;19999;-61
2023/04/22 09:05:52;;;;;;;;;;;;;;;12.65;99.96;98322.78;4993307;28;20752;-61
2023/04/22 09:08:17;;;;;;;;;;;;;;;12.59;99.44;98312.19;5001326;28;19925;-61
2023/04/22 09:10:42;;;;;;;;;;;;;;;12.65;91.89;98307.13;5001995;28;20662;-61
2023/04/22 09:13:08;;;;;;;;;;;;;;;12.72;90.19;98306.47;5004925;28;19929;-61
2023/04/22 09:15:35;;;;;;;;;;;;;;;12.79;91.95;98303.00;4989530;28;19924;-61
2023/04/22 09:18:01;;;;;;;;;;;;;;;12.89;88.86;98310.69;4986296;28;19939;-62
2023/04/22 09:20:27;;;;;;;;;;;;;;;12.98;88.28;98308.88;5000587;28;20048;-61
2023/04/22 09:22:56;;;;;;;;;;;;;;;13.04;90.22;98308.19;5001111;28;20650;-61
2023/04/22 09:25:22;;;;;;;;;;;;;;;13.12;90.94;98304.72;4983364;28;19925;-63
2023/04/22 09:27:57;;;;;;;;;;;;;;;13.12;90.72;98304.72;4987153;28;19928;-62
2023/04/22 09:30:23;;;;;;;;;;;;;;;13.24;89.22;98304.19;4980532;28;19921;-61
2023/04/22 09:33:16;;;;;;;;;;;;;;;13.42;89.60;98303.19;5020327;28;19971;-62
2023/04/22 09:35:44;;;;;;;;;;;;;;;13.60;86.11;98292.50;4997076;28;19932;-62
2023/04/22 09:38:10;;;;;;;;;;;;;;;13.55;87.40;98294.81;5001659;28;19921;-61
2023/04/22 09:40:40;;;;;;;;;;;;;;;13.78;88.71;98290.44;5001474;28;19932;-59
2023/04/22 09:43:08;;;;;;;;;;;;;;;13.68;82.72;98292.44;5002898;28;20447;-60
2023/04/22 09:45:34;;;;;;;;;;;;;;;13.87;86.14;98280.72;4999731;28;19921;-62
2023/04/22 09:48:10;;;;;;;;;;;;;;;13.72;81.79;98283.25;5002996;28;19925;-59
2023/04/22 09:50:36;;;;;;;;;;;;;;;13.76;84.99;98281.09;5004305;28;19928;-60
2023/04/22 09:53:05;;;;;;;;;;;;;;;13.82;81.65;98270.78;5004291;28;20020;-60
2023/04/22 09:55:32;;;;;;;;;;;;;;;14.02;81.56;98271.13;4985627;28;19921;-60
2023/04/22 09:57:57;;;;;;;;;;;;;;;14.13;82.69;98269.13;5000634;28;19932;-60
2023/04/22 10:00:28;;;;;;;;;;;;;;;14.28;86.00;98264.72;4997015;28;19929;-59
2023/04/22 10:02:53;;;;;;;;;;;;;;;14.38;82.38;98264.47;5003226;28;19921;-60
2023/04/22 10:05:20;;;;;;;;;;;;;;;14.51;82.26;98256.00;4996976;28;20364;-61
2023/04/22 10:07:46;;;;;;;;;;;;;;;14.64;84.98;98258.03;4980935;28;20365;-60
2023/04/22 10:10:11;;;;;;;;;;;;;;;14.88;81.49;98262.22;4984904;28;19917;-60
2023/04/22 10:12:39;;;;;;;;;;;;;;;14.78;80.88;98255.44;5001078;28;20015;-60
2023/04/22 10:15:08;;;;;;;;;;;;;;;14.77;80.23;98260.88;4994898;28;20298;-61
2023/04/22 10:17:35;;;;;;;;;;;;;;;14.93;80.46;98258.06;4998398;28;19921;-61
2023/04/22 10:20:03;;;;;;;;;;;;;;;14.89;81.52;98253.34;5020864;28;19921;-60
2023/04/22 10:22:29;;;;;;;;;;;;;;;14.90;81.05;98258.41;5016975;28;20090;-60
2023/04/22 10:24:57;;;;;;;;;;;;;;;14.95;81.72;98255.28;5000736;28;20392;-62
2023/04/22 10:27:22;;;;;;;;;;;;;;;14.95;80.68;98252.66;5002303;28;19921;-60
2023/04/22 10:29:48;;;;;;;;;;;;;;;14.85;83.92;98257.34;5002129;28;19929;-59
2023/04/22 10:32:13;;;;;;;;;;;;;;;14.78;83.20;98252.84;4995127;28;19963;-61
2023/04/22 10:34:41;;;;;;;;;;;;;;;14.76;82.22;98248.75;5020950;28;19921;-60
2023/04/22 10:37:07;;;;;;;;;;;;;;;14.82;81.90;98242.78;5002451;28;19936;-60
2023/04/22 10:39:32;;;;;;;;;;;;;;;14.90;85.19;98241.91;5004258;28;19939;-60
2023/04/22 10:42:10;;;;;;;;;;;;;;;14.94;82.12;98238.72;5004888;28;20339;-61
2023/04/22 10:44:47;;;;;;;;;;;;;;;15.09;87.55;98241.31;5026804;28;19984;-60
2023/04/22 10:47:26;;;;;;;;;;;;;;;15.22;87.10;98237.25;5018811;28;20194;-60
2023/04/22 10:50:14;;;;;;;;;;;;;;;15.10;83.16;98232.50;5029506;28;19979;-62
2023/04/22 10:52:40;;;;;;;;;;;;;;;15.41;80.52;98234.06;5013442;28;19948;-60
2023/04/22 10:55:06;;;;;;;;;;;;;;;15.45;79.27;98227.44;5008214;28;19925;-60
2023/04/22 10:57:41;;;;;;;;;;;;;;;15.49;79.98;98225.28;5023778;28;19921;-59
2023/04/22 11:00:18;;;;;;;;;;;;;;;15.61;79.23;98215.94;4996582;28;19976;-61
2023/04/22 11:02:44;;;;;;;;;;;;;;;15.84;80.39;98221.00;5026213;28;20273;-60
2023/04/22 11:05:26;;;;;;;;;;;;;;;16.03;78.11;98218.75;5021152;28;19975;-60
2023/04/22 11:07:52;;;;;;;;;;;;;;;16.14;79.91;98216.41;5020152;28;19925;-61
2023/04/22 11:10:41;;;;;;;;;;;;;;;15.77;79.91;98180.84;5009155;28;19928;-59
2023/04/22 11:13:10;;;;;;;;;;;;;;;15.97;81.17;98211.63;5005865;28;19921;-61
2023/04/22 11:15:36;;;;;;;;;;;;;;;15.76;82.02;98210.66;5006785;28;20401;-61
2023/04/22 11:18:02;;;;;;;;;;;;;;;15.76;77.90;98200.97;5010441;28;20609;-61
2023/04/22 11:20:28;;;;;;;;;;;;;;;15.92;78.62;98206.97;5024736;28;19987;-60
2023/04/22 11:22:53;;;;;;;;;;;;;;;15.78;80.67;98198.16;5026139;28;20406;-61
2023/04/22 11:25:19;;;;;;;;;;;;;;;15.62;85.25;98201.81;5019138;28;20264;-62
2023/04/22 11:27:45;;;;;;;;;;;;;;;15.62;85.71;98195.75;5009951;28;19929;-60
2023/04/22 11:30:30;;;;;;;;;;;;;;;15.42;87.81;98201.63;5009298;28;20084;-60
2023/04/22 11:32:59;;;;;;;;;;;;;;;15.17;87.95;98201.97;5017651;28;19925;-58
2023/04/22 11:35:28;;;;;;;;;;;;;;;15.05;90.02;98197.38;5024303;28;19931;-58
2023/04/22 11:38:00;;;;;;;;;;;;;;;15.06;90.18;98191.97;5026130;28;19924;-59
2023/04/22 11:40:27;;;;;;;;;;;;;;;14.93;90.49;98192.63;5024874;28;20593;-58
2023/04/22 11:42:53;;;;;;;;;;;;;;;14.96;89.83;98189.63;5046459;28;20526;-58
2023/04/22 11:45:18;;;;;;;;;;;;;;;15.15;86.63;98190.03;5027039;28;20638;-58
2023/04/22 11:47:49;;;;;;;;;;;;;;;14.92;92.24;98188.38;5025109;28;19993;-58
2023/04/22 11:50:14;;;;;;;;;;;;;;;15.07;92.71;98177.88;5027995;28;20433;-59
2023/04/22 11:52:47;;;;;;;;;;;;;;;15.25;88.32;98176.66;5028703;28;19925;-57
2023/04/22 11:55:18;;;;;;;;;;;;;;;15.29;87.31;98185.75;5029563;28;20375;-58
2023/04/22 11:57:46;;;;;;;;;;;;;;;15.46;83.71;98168.00;5026911;28;19921;-58
2023/04/22 12:00:13;;;;;;;;;;;;;;;15.84;79.97;98175.63;5010265;28;20642;-58
2023/04/22 12:02:39;;;;;;;;;;;;;;;16.25;75.79;98167.06;5024474;28;20449;-58
2023/04/22 12:05:08;;;;;;;;;;;;;;;16.31;74.26;98166.28;4994633;28;19924;-59
2023/04/22 12:07:33;;;;;;;;;;;;;;;16.12;73.94;98173.03;5004976;28;19921;-58
2023/04/22 12:10:02;;;;;;;;;;;;;;;15.99;73.85;98178.16;5010355;28;20398;-58
2023/04/22 12:12:31;;;;;;;;;;;;;;;16.03;72.52;98174.19;5003167;28;19921;-58
2023/04/22 12:14:57;;;;;;;;;;;;;;;16.05;70.53;98172.19;5001249;28;19921;-58
2023/04/22 12:17:25;;;;;;;;;;;;;;;16.04;68.35;98167.91;4987319;28;19928;-58
2023/04/22 12:19:54;;;;;;;;;;;;;;;16.01;70.37;98169.13;4988158;28;19921;-57
2023/04/22 12:22:26;;;;;;;;;;;;;;;15.97;70.69;98164.44;5000336;28;19936;-58
2023/04/22 12:24:51;;;;;;;;;;;;;;;16.02;69.29;98167.31;5008719;28;19921;-59
2023/04/22 12:27:17;;;;;;;;;;;;;;;16.07;69.85;98170.97;5002387;28;19936;-59
2023/04/22 12:29:51;;;;;;;;;;;;;;;15.76;71.35;98166.09;5024384;28;20505;-57
2023/04/22 12:32:16;;;;;;;;;;;;;;;15.70;71.13;98167.63;5004240;28;19972;-58
2023/04/22 12:34:44;;;;;;;;;;;;;;;15.85;69.37;98159.72;5004431;28;19925;-57
2023/04/22 12:37:10;;;;;;;;;;;;;;;15.99;70.79;98152.78;4996798;28;19925;-58
2023/04/22 12:39:36;;;;;;;;;;;;;;;16.11;68.43;98153.03;5011876;28;19921;-58
2023/04/22 12:42:01;;;;;;;;;;;;;;;16.22;66.41;98159.56;5006609;28;20024;-59